Terminal Aerodrome Forecast
Issued by NWS Glasgow, MT

Home | Current Version | Previous Version | Text Only | Print | Product List | Glossary On
Versions: 1 2 3 4 5 6 7 8 9 10 11 12 13 14 15
000
FTUS45 KGGW 240500
TAFGGW
TAF
KGGW 240520Z 2406/2506 26012KT P6SM SCT250
     FM241700 28014KT P6SM SCT080 SCT250
     FM250100 28006KT P6SM VCSH BKN080=

USA.gov is the U.S. government's official web portal to all federal, state and local government web resources and services.